Time;durP1;ratioP1;P1;durP2;ratioP2;P2;SDS_P1;SDS_P2;PMS_P1;PMS_P2;Temp;Humidity;BMP_temperature;BMP_pressure;BME280_temperature;BME280_humidity;BME280_pressure;Samples;Min_cycle;Max_cycle;Signal;HPM_P1;HPM_P2
2023/12/19 00:02:24;;;;;;;84.57;35.08;;;9.90;99.90;;;;;;10579041;27;20502;-63
2023/12/19 00:07:26;;;;;;;64.82;32.90;;;9.90;99.90;;;;;;10576897;27;20078;-62
2023/12/19 00:12:30;;;;;;;74.07;33.85;;;10.10;99.90;;;;;;10576404;27;20093;-62
2023/12/19 00:17:32;;;;;;;95.25;43.08;;;9.80;99.90;;;;;;10574554;27;20043;-62
2023/12/19 00:22:35;;;;;;;83.45;32.88;;;9.20;99.90;;;;;;10581122;28;20085;-64
2023/12/19 00:27:39;;;;;;;75.90;37.30;;;9.40;99.90;;;;;;10581114;27;20039;-63
2023/12/19 00:32:41;;;;;;;89.03;39.05;;;9.50;99.90;;;;;;10585038;27;20046;-62
2023/12/19 00:37:43;;;;;;;75.53;36.97;;;9.10;99.90;;;;;;10582039;27;20039;-62
2023/12/19 00:42:46;;;;;;;104.28;39.00;;;9.30;99.90;;;;;;10585317;27;20089;-62
2023/12/19 00:47:48;;;;;;;98.35;43.28;;;9.50;99.90;;;;;;10587658;27;20043;-62
2023/12/19 00:52:50;;;;;;;103.18;44.05;;;9.30;99.90;;;;;;10588945;27;20046;-61
2023/12/19 00:57:53;;;;;;;90.13;42.42;;;9.20;99.90;;;;;;10581891;27;20120;-62
2023/12/19 01:02:55;;;;;;;102.00;44.42;;;9.20;99.90;;;;;;10584524;27;20449;-63
2023/12/19 01:07:57;;;;;;;108.97;43.10;;;9.20;99.90;;;;;;10585758;27;20421;-63
2023/12/19 01:13:01;;;;;;;95.57;37.15;;;8.90;99.90;;;;;;10587184;27;20247;-61
2023/12/19 01:18:03;;;;;;;106.13;45.72;;;8.90;99.90;;;;;;10589816;27;20413;-63
2023/12/19 01:23:05;;;;;;;92.95;41.38;;;9.00;99.90;;;;;;10589341;27;20054;-63
2023/12/19 01:28:08;;;;;;;66.07;30.98;;;8.90;99.90;;;;;;10587178;27;20077;-63
2023/12/19 01:33:11;;;;;;;86.88;44.60;;;9.20;99.90;;;;;;10584324;27;20062;-62
2023/12/19 01:38:13;;;;;;;90.17;47.47;;;9.10;99.90;;;;;;10585432;27;20188;-63
2023/12/19 01:43:21;;;;;;;2.10;1.92;;;8.70;99.90;;;;;;10585941;27;20058;-63
2023/12/19 01:48:26;;;;;;;3.20;2.17;;;9.00;99.90;;;;;;10583549;27;20422;-63
2023/12/19 01:53:28;;;;;;;0.30;0.30;;;9.20;99.90;;;;;;10579928;27;20092;-62
2023/12/19 01:58:31;;;;;;;0.73;0.73;;;10.00;99.90;;;;;;10585561;27;20040;-63
2023/12/19 02:03:34;;;;;;;0.45;0.45;;;9.30;99.90;;;;;;10586833;27;20089;-64
2023/12/19 02:08:36;;;;;;;2.63;1.58;;;10.00;99.90;;;;;;10588236;27;20050;-62
2023/12/19 02:13:40;;;;;;;0.30;0.30;;;9.60;99.90;;;;;;10591837;27;20050;-61
2023/12/19 02:18:43;;;;;;;1.55;1.48;;;9.40;99.90;;;;;;10590413;27;20051;-63
2023/12/19 02:23:46;;;;;;;1.95;1.80;;;8.90;99.90;;;;;;10589936;27;20055;-61
2023/12/19 02:28:52;;;;;;;0.30;0.30;;;9.60;99.90;;;;;;10588952;27;20125;-61
2023/12/19 02:33:54;;;;;;;0.32;0.32;;;9.80;99.90;;;;;;10579966;27;20043;-62
2023/12/19 02:38:57;;;;;;;0.20;0.20;;;8.90;99.90;;;;;;10583951;27;20076;-62
2023/12/19 02:43:59;;;;;;;0.20;0.20;;;9.40;99.90;;;;;;10582319;27;20184;-62
2023/12/19 02:49:01;;;;;;;0.43;0.43;;;9.40;99.90;;;;;;10580360;27;20513;-62
2023/12/19 02:54:04;;;;;;;0.20;0.20;;;9.10;99.90;;;;;;10580384;27;20051;-62
2023/12/19 02:59:06;;;;;;;0.88;0.88;;;8.90;99.90;;;;;;10577647;27;20043;-61
2023/12/19 03:04:08;;;;;;;2.08;0.85;;;9.00;99.90;;;;;;10580966;27;20116;-63
2023/12/19 03:09:12;;;;;;;1.38;1.27;;;9.50;99.90;;;;;;10581443;27;20523;-63
2023/12/19 03:14:14;;;;;;;1.05;1.05;;;10.20;99.90;;;;;;10582674;27;20061;-62
2023/12/19 03:19:16;;;;;;;7.50;3.65;;;10.90;99.90;;;;;;10581858;27;20046;-63
2023/12/19 03:24:19;;;;;;;0.20;0.20;;;9.70;99.90;;;;;;10580652;27;20046;-63
2023/12/19 03:29:21;;;;;;;0.20;0.20;;;10.10;99.90;;;;;;10581078;27;21376;-64
2023/12/19 03:34:23;;;;;;;0.10;0.10;;;10.20;99.90;;;;;;10583684;27;20521;-65
2023/12/19 03:39:27;;;;;;;0.28;0.28;;;9.80;99.90;;;;;;10584771;27;20490;-62
2023/12/19 03:44:29;;;;;;;1.15;1.13;;;10.80;99.90;;;;;;10583439;27;20119;-62
2023/12/19 03:49:31;;;;;;;0.20;0.20;;;10.60;99.90;;;;;;10585502;27;20109;-62
2023/12/19 03:54:34;;;;;;;0.10;0.10;;;9.70;99.90;;;;;;10583194;27;20050;-62
2023/12/19 04:15:33;;;;;;;0.60;0.60;;;9.40;99.90;;;;;;10611165;27;20130;-63
2023/12/19 04:20:35;;;;;;;0.20;0.20;;;9.30;99.90;;;;;;10616129;27;20051;-63
2023/12/19 04:25:37;;;;;;;0.13;0.13;;;9.60;99.90;;;;;;10620039;27;20057;-62
2023/12/19 04:30:41;;;;;;;5.53;2.20;;;9.50;99.90;;;;;;10617389;27;20071;-62
2023/12/19 04:35:43;;;;;;;0.52;0.52;;;9.90;99.90;;;;;;10617101;27;20054;-62
2023/12/19 04:40:45;;;;;;;4.20;2.05;;;9.40;99.90;;;;;;10615194;27;20070;-63
2023/12/19 04:45:48;;;;;;;1.77;1.67;;;9.20;99.90;;;;;;10615803;27;20177;-63
2023/12/19 04:50:51;;;;;;;0.20;0.20;;;9.60;99.90;;;;;;10611677;27;21154;-62
2023/12/19 04:55:53;;;;;;;60.73;33.10;;;9.60;99.90;;;;;;10613157;27;21045;-61
2023/12/19 05:00:56;;;;;;;0.93;0.90;;;9.70;99.90;;;;;;10617317;27;20110;-61
2023/12/19 05:05:58;;;;;;;0.43;0.43;;;9.40;99.90;;;;;;10613519;27;20520;-63
2023/12/19 05:11:00;;;;;;;0.10;0.10;;;9.70;99.90;;;;;;10613107;27;20133;-61
2023/12/19 05:16:12;;;;;;;0.40;0.40;;;9.70;99.90;;;;;;10616112;27;20054;-63
2023/12/19 05:21:14;;;;;;;0.17;0.17;;;9.80;99.90;;;;;;10613127;27;20849;-62
2023/12/19 05:26:16;;;;;;;0.30;0.30;;;10.00;99.90;;;;;;10586760;27;20062;-62
2023/12/19 05:31:20;;;;;;;0.35;0.35;;;10.00;99.90;;;;;;10586213;27;20074;-62
2023/12/19 05:36:22;;;;;;;3.40;1.83;;;10.40;99.90;;;;;;10587311;27;20120;-63
2023/12/19 05:41:24;;;;;;;1.37;1.27;;;10.10;99.90;;;;;;10585567;27;20503;-64
2023/12/19 05:46:28;;;;;;;2.05;1.95;;;10.00;99.90;;;;;;10584847;27;20051;-63
2023/12/19 05:51:30;;;;;;;0.30;0.30;;;10.10;99.90;;;;;;10584441;27;20043;-63
2023/12/19 05:56:32;;;;;;;70.75;30.42;;;10.20;99.90;;;;;;10586353;27;20051;-63
2023/12/19 06:01:42;;;;;;;32.38;11.65;;;10.60;99.90;;;;;;10588399;27;20050;-62
2023/12/19 06:06:44;;;;;;;79.28;31.83;;;10.40;99.90;;;;;;10580455;27;20897;-64
2023/12/19 06:11:46;;;;;;;95.82;38.95;;;10.50;99.90;;;;;;10584246;27;20055;-62
2023/12/19 06:16:49;;;;;;;102.65;39.80;;;10.10;99.90;;;;;;10583555;27;20179;-64
2023/12/19 06:21:52;;;;;;;16.33;10.38;;;10.40;99.90;;;;;;10580037;27;20094;-64
2023/12/19 06:26:54;;;;;;;69.57;29.77;;;10.20;99.90;;;;;;10578624;27;20054;-62
2023/12/19 06:31:57;;;;;;;113.18;45.20;;;10.30;99.90;;;;;;10578392;27;20682;-62
2023/12/19 06:36:59;;;;;;;123.65;44.75;;;10.50;99.90;;;;;;10578613;27;20086;-62
2023/12/19 06:42:01;;;;;;;98.40;41.50;;;10.30;99.90;;;;;;10576521;27;20081;-62
2023/12/19 06:47:04;;;;;;;114.15;45.50;;;10.40;99.90;;;;;;10577242;27;20625;-63
2023/12/19 06:52:07;;;;;;;0.68;0.68;;;10.40;99.90;;;;;;10574798;27;20458;-63
2023/12/19 06:57:08;;;;;;;61.70;26.10;;;10.20;99.90;;;;;;10572740;27;20855;-62
2023/12/19 07:02:12;;;;;;;0.70;0.70;;;10.40;99.90;;;;;;10571447;27;20047;-63
2023/12/19 07:07:15;;;;;;;1.40;1.30;;;10.60;99.90;;;;;;10578030;27;20403;-63
2023/12/19 07:12:17;;;;;;;17.42;9.88;;;10.30;99.90;;;;;;10579459;27;20134;-61
2023/12/19 07:17:22;;;;;;;0.40;0.40;;;10.30;99.90;;;;;;10581521;27;20057;-61
2023/12/19 07:22:24;;;;;;;74.72;37.15;;;10.20;99.90;;;;;;10584052;27;20054;-70
2023/12/19 07:27:27;;;;;;;48.22;25.50;;;10.00;99.90;;;;;;10580763;27;20063;-62
2023/12/19 07:32:30;;;;;;;44.03;24.53;;;10.70;99.90;;;;;;10583404;27;22593;-62
2023/12/19 07:37:32;;;;;;;50.08;27.15;;;10.30;99.90;;;;;;10580418;27;20566;-62
2023/12/19 07:42:34;;;;;;;0.10;0.10;;;10.30;99.90;;;;;;10581101;27;20075;-63
2023/12/19 07:47:37;;;;;;;12.90;7.22;;;10.20;99.90;;;;;;10576939;27;20051;-61
2023/12/19 07:52:40;;;;;;;50.47;26.60;;;10.40;99.90;;;;;;10575077;27;20055;-62
2023/12/19 07:57:42;;;;;;;44.10;21.25;;;9.90;99.90;;;;;;10572674;27;20136;-64
2023/12/19 08:02:49;;;;;;;42.42;25.60;;;10.30;99.90;;;;;;10579074;27;20058;-62
2023/12/19 08:07:51;;;;;;;49.67;27.50;;;10.30;99.90;;;;;;10580203;27;20047;-63
2023/12/19 08:12:53;;;;;;;37.05;22.48;;;10.30;99.90;;;;;;10580040;28;20047;-62
2023/12/19 08:17:57;;;;;;;55.20;30.83;;;10.60;99.90;;;;;;10575705;28;20857;-63
2023/12/19 08:22:59;;;;;;;58.55;32.10;;;10.10;99.90;;;;;;10575678;28;20051;-63
2023/12/19 08:28:01;;;;;;;59.58;32.38;;;10.20;99.90;;;;;;10574733;28;20088;-62
2023/12/19 08:33:05;;;;;;;2.00;0.83;;;10.30;99.90;;;;;;10579622;28;20043;-62
2023/12/19 08:38:07;;;;;;;45.88;17.45;;;10.40;99.90;;;;;;10576641;28;20560;-62
2023/12/19 08:43:09;;;;;;;31.30;16.47;;;11.90;99.90;;;;;;10578961;28;20042;-63
2023/12/19 08:48:13;;;;;;;0.10;0.10;;;12.10;99.90;;;;;;10579672;27;20067;-62
2023/12/19 08:53:15;;;;;;;0.20;0.20;;;11.40;99.90;;;;;;10581134;28;22574;-61
2023/12/19 08:58:17;;;;;;;0.15;0.15;;;11.30;99.90;;;;;;10579953;27;20047;-61
2023/12/19 09:03:20;;;;;;;0.30;0.30;;;12.40;99.90;;;;;;10587018;27;20047;-62
2023/12/19 09:08:23;;;;;;;1.02;0.30;;;12.60;99.90;;;;;;10587099;27;20128;-62
2023/12/19 09:13:25;;;;;;;0.93;0.77;;;12.90;99.90;;;;;;10586978;27;20202;-61
2023/12/19 09:18:29;;;;;;;0.20;0.20;;;13.00;99.90;;;;;;10582874;27;20498;-62
2023/12/19 09:23:31;;;;;;;0.20;0.20;;;12.60;99.90;;;;;;10586448;27;20043;-61
2023/12/19 09:28:33;;;;;;;0.77;0.77;;;11.60;99.90;;;;;;10584897;27;20570;-61
2023/12/19 09:33:38;;;;;;;1.50;0.97;;;12.00;99.90;;;;;;10582647;27;20043;-63
2023/12/19 09:38:39;;;;;;;0.30;0.30;;;11.80;99.90;;;;;;10580950;27;20529;-63
2023/12/19 09:43:44;;;;;;;0.38;0.38;;;11.40;99.90;;;;;;10585498;27;20097;-61
2023/12/19 09:48:50;;;;;;;5.38;3.67;;;11.00;99.90;;;;;;10585247;27;20103;-63
2023/12/19 09:53:54;;;;;;;15.77;8.63;;;10.40;99.90;;;;;;10579979;27;20043;-62
2023/12/19 09:58:57;;;;;;;46.50;18.95;;;10.30;99.90;;;;;;10577908;27;20094;-63
2023/12/19 10:04:02;;;;;;;0.40;0.40;;;10.10;99.90;;;;;;10579060;27;20131;-63
2023/12/19 10:09:05;;;;;;;12.65;6.05;;;10.40;99.90;;;;;;10576414;27;20069;-63
2023/12/19 10:14:11;;;;;;;0.20;0.20;;;10.30;99.90;;;;;;10580337;27;20054;-62
2023/12/19 10:19:16;;;;;;;10.25;3.58;;;10.40;99.90;;;;;;10580075;27;20047;-63
2023/12/19 10:24:26;;;;;;;0.52;0.52;;;10.60;99.90;;;;;;10578967;27;20131;-62
2023/12/19 10:29:36;;;;;;;0.40;0.40;;;10.20;99.90;;;;;;10577176;27;20084;-64
2023/12/19 10:34:40;;;;;;;28.42;14.00;;;10.20;99.90;;;;;;10578733;27;20059;-63
2023/12/19 10:39:43;;;;;;;21.23;15.55;;;10.30;99.90;;;;;;10579668;27;20163;-62
2023/12/19 10:44:45;;;;;;;;;;;10.30;99.90;;;;;;10581862;27;20071;-63
2023/12/19 10:49:49;;;;;;;0.20;0.20;;;10.30;99.90;;;;;;10586850;27;19984;-62
2023/12/19 10:54:56;;;;;;;1.48;0.90;;;10.70;99.90;;;;;;10579643;27;20056;-61
2023/12/19 11:00:09;;;;;;;0.10;0.10;;;10.60;99.90;;;;;;10582325;27;20523;-62
2023/12/19 11:05:21;;;;;;;9.30;5.38;;;10.20;99.90;;;;;;10580378;27;20047;-62
2023/12/19 11:10:25;;;;;;;0.10;0.10;;;9.90;99.90;;;;;;10581469;27;20054;-62
2023/12/19 11:15:29;;;;;;;0.22;0.22;;;10.20;99.90;;;;;;10578019;27;20058;-62
2023/12/19 11:20:39;;;;;;;0.30;0.30;;;10.00;99.90;;;;;;10578294;27;20047;-61
2023/12/19 11:25:46;;;;;;;0.20;0.20;;;10.00;99.90;;;;;;10580635;27;20035;-62
2023/12/19 11:30:48;;;;;;;3.30;0.90;;;10.20;99.90;;;;;;10581026;27;20113;-61
2023/12/19 11:35:51;;;;;;;0.20;0.20;;;9.90;99.90;;;;;;10573470;27;20047;-62
2023/12/19 11:40:55;;;;;;;0.10;0.10;;;9.90;99.90;;;;;;10580120;27;20469;-63
2023/12/19 11:45:58;;;;;;;0.10;0.10;;;9.90;99.90;;;;;;10574400;27;20391;-62
2023/12/19 11:51:01;;;;;;;0.20;0.20;;;9.90;99.90;;;;;;10579870;27;20164;-63
2023/12/19 11:56:09;;;;;;;0.10;0.10;;;10.10;99.90;;;;;;10576163;27;20054;-63
2023/12/19 12:01:12;;;;;;;0.15;0.15;;;10.00;99.90;;;;;;10579575;27;20047;-62
2023/12/19 12:06:19;;;;;;;0.20;0.20;;;10.20;99.90;;;;;;10578876;27;20375;-63
2023/12/19 12:11:21;;;;;;;0.20;0.20;;;10.10;99.90;;;;;;10582756;27;20639;-63
2023/12/19 12:16:35;;;;;;;0.75;0.55;;;11.20;99.90;;;;;;10580898;28;20323;-62
2023/12/19 12:21:44;;;;;;;0.30;0.30;;;11.00;99.90;;;;;;10577012;28;20050;-63
2023/12/19 12:26:46;;;;;;;0.20;0.20;;;10.20;99.90;;;;;;10577687;28;20057;-64
2023/12/19 12:31:51;;;;;;;1.70;1.60;;;10.10;99.90;;;;;;10575409;27;20062;-62
2023/12/19 12:36:54;;;;;;;0.10;0.10;;;10.20;99.90;;;;;;10583139;27;20488;-62
2023/12/19 12:42:01;;;;;;;0.20;0.20;;;10.50;99.90;;;;;;10583822;27;20047;-61
2023/12/19 12:47:05;;;;;;;0.10;0.10;;;10.00;99.90;;;;;;10586401;27;20047;-62
2023/12/19 12:52:08;;;;;;;0.43;0.43;;;10.30;99.90;;;;;;10586093;27;20148;-64
2023/12/19 12:57:13;;;;;;;0.10;0.10;;;9.90;99.90;;;;;;10586143;27;20050;-63
2023/12/19 13:02:15;;;;;;;0.20;0.20;;;9.70;99.90;;;;;;10586741;27;20202;-64
2023/12/19 13:07:18;;;;;;;0.10;0.10;;;10.20;99.90;;;;;;10583957;27;20250;-64
2023/12/19 13:12:20;;;;;;;0.20;0.20;;;9.80;99.90;;;;;;10582980;27;20766;-64
2023/12/19 13:17:22;;;;;;;0.10;0.10;;;10.30;99.90;;;;;;10582598;27;20763;-64
2023/12/19 13:22:26;;;;;;;0.10;0.10;;;10.20;99.90;;;;;;10591366;27;20051;-64
2023/12/19 13:27:28;;;;;;;0.10;0.10;;;10.50;99.90;;;;;;10588620;27;20412;-63
2023/12/19 13:32:30;;;;;;;0.10;0.10;;;10.70;99.90;;;;;;10589973;27;20047;-62
2023/12/19 13:37:33;;;;;;;0.10;0.10;;;11.40;99.90;;;;;;10592214;27;20043;-61
2023/12/19 13:42:36;;;;;;;0.15;0.15;;;11.40;99.90;;;;;;10587931;27;20200;-65
2023/12/19 13:47:38;;;;;;;0.10;0.10;;;11.00;99.90;;;;;;10583805;27;20150;-65
2023/12/19 13:52:42;;;;;;;0.10;0.10;;;12.60;99.90;;;;;;10584794;27;22991;-64
2023/12/19 13:57:44;;;;;;;0.10;0.10;;;13.90;99.90;;;;;;10584343;27;20124;-65
2023/12/19 14:02:47;;;;;;;0.10;0.10;;;13.90;99.90;;;;;;10584942;27;20455;-64
2023/12/19 14:07:50;;;;;;;0.10;0.10;;;14.10;99.90;;;;;;10585002;27;20480;-64
2023/12/19 14:12:52;;;;;;;1.27;1.10;;;15.00;99.90;;;;;;10583197;27;20634;-64
2023/12/19 14:17:54;;;;;;;0.10;0.10;;;15.50;99.90;;;;;;10583277;27;20370;-64
2023/12/19 14:22:58;;;;;;;0.20;0.20;;;14.80;99.90;;;;;;10583584;27;20050;-64
2023/12/19 14:28:00;;;;;;;0.10;0.10;;;15.20;99.90;;;;;;10581303;27;20051;-65
2023/12/19 14:33:03;;;;;;;0.10;0.10;;;15.40;99.90;;;;;;10580956;27;20568;-65
2023/12/19 14:38:07;;;;;;;0.05;0.05;;;15.70;99.90;;;;;;10581709;27;20058;-65
2023/12/19 14:43:10;;;;;;;0.10;0.10;;;16.20;99.90;;;;;;10580921;27;20043;-65
2023/12/19 14:48:12;;;;;;;0.17;0.17;;;16.30;99.90;;;;;;10575412;27;20070;-66
2023/12/19 14:53:15;;;;;;;2.35;0.85;;;16.40;99.90;;;;;;10580763;27;20043;-64
2023/12/19 14:58:17;;;;;;;0.10;0.10;;;16.70;99.90;;;;;;10574947;27;20704;-66
2023/12/19 15:03:19;;;;;;;0.00;0.00;;;16.90;99.90;;;;;;10577148;27;20835;-64
2023/12/19 15:08:23;;;;;;;0.00;0.00;;;16.70;99.90;;;;;;10575436;27;20071;-64
2023/12/19 15:13:25;;;;;;;0.10;0.10;;;16.00;99.90;;;;;;10576003;27;20506;-65
2023/12/19 15:18:27;;;;;;;0.00;0.00;;;14.10;99.90;;;;;;10579479;27;20050;-65
2023/12/19 15:23:30;;;;;;;0.10;0.10;;;13.40;99.90;;;;;;10581324;27;20157;-64
2023/12/19 15:28:33;;;;;;;0.10;0.10;;;13.30;99.90;;;;;;10573872;27;20493;-66
2023/12/19 15:33:35;;;;;;;0.10;0.10;;;13.20;99.90;;;;;;10574645;27;20039;-61
2023/12/19 15:38:38;;;;;;;0.00;0.00;;;14.00;99.90;;;;;;10570374;27;20120;-64
2023/12/19 15:43:42;;;;;;;0.10;0.10;;;14.70;99.90;;;;;;10579933;27;20039;-65
2023/12/19 15:48:46;;;;;;;0.10;0.10;;;13.70;99.90;;;;;;10573546;27;20043;-63
2023/12/19 15:53:50;;;;;;;0.17;0.17;;;14.40;99.90;;;;;;10567709;27;20142;-64
2023/12/19 15:58:52;;;;;;;0.10;0.10;;;14.60;99.90;;;;;;10569113;27;20567;-64
2023/12/19 16:03:54;;;;;;;0.00;0.00;;;14.20;99.90;;;;;;10567844;27;20097;-64
2023/12/19 16:08:57;;;;;;;0.00;0.00;;;15.00;99.90;;;;;;10570977;27;20051;-65
2023/12/19 16:14:00;;;;;;;0.10;0.10;;;15.20;99.90;;;;;;10571038;27;20823;-65
2023/12/19 16:19:02;;;;;;;0.10;0.10;;;14.30;99.90;;;;;;10568735;27;20050;-64
2023/12/19 16:24:06;;;;;;;0.00;0.00;;;13.50;99.90;;;;;;10572867;28;20047;-64
2023/12/19 16:29:08;;;;;;;0.10;0.10;;;14.40;99.90;;;;;;10571368;27;20092;-64
2023/12/19 16:34:11;;;;;;;7.53;2.45;;;13.10;99.90;;;;;;10566380;27;20234;-66
2023/12/19 16:39:14;;;;;;;0.10;0.10;;;13.00;99.90;;;;;;10568554;28;20483;-64
2023/12/19 16:44:16;;;;;;;0.10;0.10;;;13.90;99.90;;;;;;10571569;27;21288;-63
2023/12/19 16:49:18;;;;;;;0.00;0.00;;;14.10;99.90;;;;;;10572844;28;20212;-64
2023/12/19 16:54:22;;;;;;;0.20;0.20;;;14.40;99.90;;;;;;10572676;28;20447;-64
2023/12/19 16:59:24;;;;;;;1.27;0.88;;;14.10;99.90;;;;;;10568873;28;20039;-63
2023/12/19 17:04:26;;;;;;;0.10;0.10;;;13.70;99.90;;;;;;10576089;28;20079;-62
2023/12/19 17:09:30;;;;;;;0.10;0.10;;;13.30;99.90;;;;;;10571695;28;20096;-64
2023/12/19 17:14:32;;;;;;;0.20;0.20;;;13.20;99.90;;;;;;10575929;28;20648;-64
2023/12/19 17:19:34;;;;;;;1.17;1.00;;;12.90;99.90;;;;;;10580283;27;20533;-62
2023/12/19 17:24:37;;;;;;;0.30;0.30;;;12.00;99.90;;;;;;10580850;27;20050;-65
2023/12/19 17:29:39;;;;;;;0.10;0.10;;;13.60;99.90;;;;;;10578682;27;20114;-65
2023/12/19 17:34:43;;;;;;;0.10;0.10;;;12.30;99.90;;;;;;10576332;27;20094;-62
2023/12/19 17:39:47;;;;;;;0.10;0.10;;;12.20;99.90;;;;;;10579076;27;20047;-67
2023/12/19 17:44:51;;;;;;;0.10;0.10;;;12.70;99.90;;;;;;10578972;27;20180;-64
2023/12/19 17:49:53;;;;;;;0.10;0.10;;;13.40;99.90;;;;;;10578729;27;20786;-64
2023/12/19 17:54:56;;;;;;;0.10;0.10;;;13.30;99.90;;;;;;10576807;27;20505;-65
2023/12/19 17:59:58;;;;;;;0.10;0.10;;;13.00;99.90;;;;;;10571436;27;20540;-64
2023/12/19 18:05:01;;;;;;;1.98;1.65;;;12.40;99.90;;;;;;10572623;27;20518;-64
2023/12/19 18:10:06;;;;;;;0.32;0.32;;;12.40;99.90;;;;;;10574367;27;20059;-64
2023/12/19 18:15:09;;;;;;;0.10;0.10;;;13.50;99.90;;;;;;10570719;27;20047;-63
2023/12/19 18:20:11;;;;;;;0.20;0.20;;;13.20;99.90;;;;;;10565412;27;20922;-64
2023/12/19 18:25:15;;;;;;;0.10;0.10;;;14.10;99.90;;;;;;10568329;27;20110;-64
2023/12/19 18:30:17;;;;;;;0.20;0.20;;;13.60;99.90;;;;;;10577548;27;20055;-64
2023/12/19 18:35:19;;;;;;;3.33;0.63;;;11.80;99.90;;;;;;10576629;27;20170;-65
2023/12/19 18:40:23;;;;;;;3.25;1.48;;;10.80;99.90;;;;;;10571899;27;20079;-63
2023/12/19 18:45:25;;;;;;;0.20;0.20;;;10.50;99.90;;;;;;10574632;27;20047;-65
2023/12/19 18:50:27;;;;;;;0.93;0.93;;;10.20;99.90;;;;;;10571805;27;20105;-63
2023/12/19 18:55:30;;;;;;;0.10;0.10;;;10.50;99.90;;;;;;10571435;27;20162;-64
2023/12/19 19:00:33;;;;;;;0.13;0.13;;;10.50;99.90;;;;;;10555180;27;20058;-63
2023/12/19 19:05:35;;;;;;;0.20;0.20;;;10.60;99.90;;;;;;10575994;27;20053;-62
2023/12/19 19:10:38;;;;;;;0.20;0.20;;;10.20;99.90;;;;;;10580407;27;20047;-63
2023/12/19 19:15:40;;;;;;;0.10;0.10;;;9.70;99.90;;;;;;10578797;27;20054;-64
2023/12/19 19:20:42;;;;;;;0.55;0.55;;;10.20;99.90;;;;;;10582053;27;20070;-64
2023/12/19 19:25:47;;;;;;;0.20;0.20;;;9.80;99.90;;;;;;10579246;27;20047;-63
2023/12/19 19:30:50;;;;;;;0.10;0.10;;;9.80;99.90;;;;;;10581571;27;20054;-63
2023/12/19 19:35:52;;;;;;;0.40;0.40;;;9.90;99.90;;;;;;10579794;27;20139;-64
2023/12/19 19:40:55;;;;;;;0.10;0.10;;;9.90;99.90;;;;;;10579371;27;20053;-63
2023/12/19 19:46:01;;;;;;;0.10;0.10;;;10.10;99.90;;;;;;10575757;27;20539;-63
2023/12/19 19:51:05;;;;;;;10.43;1.27;;;10.50;99.90;;;;;;10579502;27;20054;-62
2023/12/19 19:56:09;;;;;;;0.20;0.20;;;11.00;99.90;;;;;;10575117;27;20043;-63
2023/12/19 20:01:11;;;;;;;1.50;0.90;;;11.60;99.90;;;;;;10583223;27;20039;-62
2023/12/19 20:06:13;;;;;;;0.10;0.10;;;11.60;99.90;;;;;;10582354;27;20586;-63
2023/12/19 20:11:18;;;;;;;0.65;0.65;;;12.20;99.90;;;;;;10587098;27;20496;-62
2023/12/19 20:16:20;;;;;;;0.10;0.10;;;11.60;99.90;;;;;;10562865;28;20159;-63
2023/12/19 20:21:22;;;;;;;0.05;0.05;;;11.50;99.90;;;;;;10580359;28;20645;-62
2023/12/19 20:26:26;;;;;;;0.20;0.20;;;11.70;99.90;;;;;;10578927;28;20046;-64
2023/12/19 20:31:29;;;;;;;0.10;0.10;;;11.10;99.90;;;;;;10582847;28;20054;-62
2023/12/19 20:36:31;;;;;;;0.20;0.20;;;10.50;99.90;;;;;;10579881;27;20891;-63
2023/12/19 20:41:34;;;;;;;0.20;0.20;;;11.70;99.90;;;;;;10573067;28;20046;-64
2023/12/19 20:46:36;;;;;;;14.23;2.50;;;10.40;99.90;;;;;;10573094;27;20058;-64
2023/12/19 20:51:39;;;;;;;0.57;0.50;;;10.40;99.90;;;;;;10573247;28;20093;-63
2023/12/19 20:56:45;;;;;;;0.30;0.30;;;10.30;99.90;;;;;;10577328;27;20492;-64
2023/12/19 21:01:47;;;;;;;0.10;0.10;;;10.20;99.90;;;;;;10566326;27;20949;-64
2023/12/19 21:06:49;;;;;;;0.20;0.20;;;10.00;99.90;;;;;;10581413;27;20089;-64
2023/12/19 21:11:53;;;;;;;1.05;1.05;;;10.60;99.90;;;;;;10582345;27;20078;-63
2023/12/19 21:16:55;;;;;;;0.10;0.10;;;10.70;99.90;;;;;;10578074;27;20787;-64
2023/12/19 21:21:57;;;;;;;0.50;0.50;;;10.00;99.90;;;;;;10583686;27;20444;-62
2023/12/19 21:27:02;;;;;;;0.10;0.10;;;9.90;99.90;;;;;;10582004;27;20634;-64
2023/12/19 21:32:04;;;;;;;0.10;0.10;;;10.30;99.90;;;;;;10582014;27;20505;-63
2023/12/19 21:37:07;;;;;;;0.17;0.17;;;10.70;99.90;;;;;;10580692;27;20083;-64
2023/12/19 21:42:10;;;;;;;3.78;1.60;;;10.90;99.90;;;;;;10581277;27;20881;-64
2023/12/19 21:47:12;;;;;;;1.70;1.42;;;10.20;99.90;;;;;;10584203;27;20078;-64
2023/12/19 21:52:14;;;;;;;0.10;0.10;;;10.30;99.90;;;;;;10582154;27;20290;-62
2023/12/19 21:57:17;;;;;;;0.30;0.30;;;11.20;99.90;;;;;;10582680;27;20077;-62
2023/12/19 22:02:20;;;;;;;0.10;0.10;;;10.10;99.90;;;;;;10586405;27;20589;-62
2023/12/19 22:07:22;;;;;;;0.20;0.20;;;9.70;99.90;;;;;;10581348;27;20425;-63
2023/12/19 22:12:25;;;;;;;0.17;0.17;;;9.60;99.90;;;;;;10587832;27;20058;-63
2023/12/19 22:17:27;;;;;;;0.10;0.10;;;9.90;99.90;;;;;;10589731;27;20119;-64
2023/12/19 22:22:29;;;;;;;0.63;0.63;;;11.10;99.90;;;;;;10584636;27;20093;-64
2023/12/19 22:27:33;;;;;;;0.40;0.40;;;10.30;99.90;;;;;;10585986;27;20051;-63
2023/12/19 22:32:36;;;;;;;0.20;0.20;;;10.40;99.90;;;;;;10584833;27;20051;-64
2023/12/19 22:37:38;;;;;;;0.10;0.10;;;9.50;99.90;;;;;;10586402;27;20050;-64
2023/12/19 22:42:42;;;;;;;0.17;0.17;;;9.80;99.90;;;;;;10584708;27;20055;-64
2023/12/19 22:47:44;;;;;;;0.10;0.10;;;9.60;99.90;;;;;;10578398;27;20519;-63
2023/12/19 22:52:47;;;;;;;0.40;0.40;;;9.70;99.90;;;;;;10588986;27;20047;-64
2023/12/19 22:57:51;;;;;;;0.20;0.20;;;9.20;99.90;;;;;;10583408;27;20112;-64
2023/12/19 23:02:53;;;;;;;0.10;0.10;;;9.40;99.90;;;;;;10585002;27;20066;-63
2023/12/19 23:07:55;;;;;;;0.20;0.20;;;9.00;99.90;;;;;;10586053;27;20050;-63
2023/12/19 23:12:58;;;;;;;0.40;0.40;;;8.80;99.90;;;;;;10585118;27;20062;-63
2023/12/19 23:18:03;;;;;;;2.80;1.85;;;9.50;99.90;;;;;;10585038;27;20039;-63
2023/12/19 23:23:05;;;;;;;0.20;0.20;;;9.80;99.90;;;;;;10582252;27;22895;-62
2023/12/19 23:28:09;;;;;;;0.30;0.30;;;9.70;99.90;;;;;;10584767;27;20856;-63
2023/12/19 23:33:11;;;;;;;0.10;0.10;;;9.70;99.90;;;;;;10580998;27;20043;-63
2023/12/19 23:38:13;;;;;;;0.15;0.15;;;9.80;99.90;;;;;;10578806;27;20394;-62
2023/12/19 23:43:18;;;;;;;0.17;0.17;;;9.40;99.90;;;;;;10581824;27;20562;-64
2023/12/19 23:48:21;;;;;;;1.95;1.85;;;9.50;99.90;;;;;;10580713;27;20858;-63
2023/12/19 23:53:23;;;;;;;0.20;0.20;;;9.10;99.90;;;;;;10580107;27;20786;-64
2023/12/19 23:58:26;;;;;;;0.10;0.10;;;9.30;99.90;;;;;;10584642;27;20928;-64
